sensor_id;sensor_type;location;lat;lon;timestamp;P1;durP1;ratioP1;P2;durP2;ratioP2
44440;SDS011;30146;52.268;20.944;2022-08-30T00:02:34;9.30;;;4.90;;
44440;SDS011;30146;52.268;20.944;2022-08-30T00:05:06;7.80;;;4.10;;
44440;SDS011;30146;52.268;20.944;2022-08-30T00:07:35;8.30;;;4.70;;
44440;SDS011;30146;52.268;20.944;2022-08-30T00:10:07;10.30;;;4.90;;
44440;SDS011;30146;52.268;20.944;2022-08-30T00:12:36;10.40;;;5.40;;
44440;SDS011;30146;52.268;20.944;2022-08-30T00:15:06;12.40;;;5.20;;
44440;SDS011;30146;52.268;20.944;2022-08-30T00:17:38;12.80;;;5.60;;
44440;SDS011;30146;52.268;20.944;2022-08-30T00:20:09;8.00;;;5.10;;
44440;SDS011;30146;52.268;20.944;2022-08-30T00:22:40;7.50;;;5.10;;
44440;SDS011;30146;52.268;20.944;2022-08-30T00:25:09;13.10;;;5.40;;
44440;SDS011;30146;52.268;20.944;2022-08-30T00:27:38;8.80;;;5.10;;
44440;SDS011;30146;52.268;20.944;2022-08-30T00:30:09;19.10;;;4.90;;
44440;SDS011;30146;52.268;20.944;2022-08-30T00:32:39;7.80;;;4.90;;
44440;SDS011;30146;52.268;20.944;2022-08-30T00:35:08;10.90;;;4.90;;
44440;SDS011;30146;52.268;20.944;2022-08-30T00:37:39;9.30;;;5.10;;
44440;SDS011;30146;52.268;20.944;2022-08-30T00:40:10;7.60;;;4.70;;
44440;SDS011;30146;52.268;20.944;2022-08-30T00:42:41;7.80;;;5.00;;
44440;SDS011;30146;52.268;20.944;2022-08-30T00:45:18;9.20;;;5.00;;
44440;SDS011;30146;52.268;20.944;2022-08-30T00:47:50;8.20;;;4.90;;
44440;SDS011;30146;52.268;20.944;2022-08-30T00:50:23;9.30;;;4.90;;
44440;SDS011;30146;52.268;20.944;2022-08-30T00:52:54;8.40;;;4.70;;
44440;SDS011;30146;52.268;20.944;2022-08-30T00:55:28;7.10;;;4.80;;
44440;SDS011;30146;52.268;20.944;2022-08-30T00:57:57;10.40;;;5.60;;
44440;SDS011;30146;52.268;20.944;2022-08-30T01:00:31;10.80;;;5.10;;
44440;SDS011;30146;52.268;20.944;2022-08-30T01:03:00;8.60;;;5.10;;
44440;SDS011;30146;52.268;20.944;2022-08-30T01:05:29;9.20;;;4.60;;
44440;SDS011;30146;52.268;20.944;2022-08-30T01:07:58;7.40;;;4.80;;
44440;SDS011;30146;52.268;20.944;2022-08-30T01:10:26;7.70;;;4.80;;
44440;SDS011;30146;52.268;20.944;2022-08-30T01:12:55;7.10;;;4.60;;
44440;SDS011;30146;52.268;20.944;2022-08-30T01:15:24;9.70;;;5.30;;
44440;SDS011;30146;52.268;20.944;2022-08-30T01:17:53;8.00;;;4.60;;
44440;SDS011;30146;52.268;20.944;2022-08-30T01:20:27;8.30;;;5.10;;
44440;SDS011;30146;52.268;20.944;2022-08-30T01:23:02;7.20;;;4.80;;
44440;SDS011;30146;52.268;20.944;2022-08-30T01:25:34;9.20;;;5.00;;
44440;SDS011;30146;52.268;20.944;2022-08-30T01:28:05;8.00;;;5.20;;
44440;SDS011;30146;52.268;20.944;2022-08-30T01:30:35;9.70;;;5.10;;
44440;SDS011;30146;52.268;20.944;2022-08-30T01:33:06;10.20;;;4.90;;
44440;SDS011;30146;52.268;20.944;2022-08-30T01:35:46;9.00;;;5.10;;
44440;SDS011;30146;52.268;20.944;2022-08-30T01:38:20;8.10;;;5.10;;
44440;SDS011;30146;52.268;20.944;2022-08-30T01:40:55;9.70;;;5.20;;
44440;SDS011;30146;52.268;20.944;2022-08-30T01:43:25;11.70;;;5.40;;
44440;SDS011;30146;52.268;20.944;2022-08-30T01:45:54;8.40;;;4.70;;
44440;SDS011;30146;52.268;20.944;2022-08-30T01:48:23;8.00;;;5.10;;
44440;SDS011;30146;52.268;20.944;2022-08-30T01:50:57;11.90;;;5.40;;
44440;SDS011;30146;52.268;20.944;2022-08-30T01:53:26;9.10;;;4.70;;
44440;SDS011;30146;52.268;20.944;2022-08-30T01:55:55;7.90;;;5.10;;
44440;SDS011;30146;52.268;20.944;2022-08-30T01:58:24;6.70;;;4.90;;
44440;SDS011;30146;52.268;20.944;2022-08-30T02:00:57;11.70;;;5.00;;
44440;SDS011;30146;52.268;20.944;2022-08-30T02:03:27;8.60;;;6.00;;
44440;SDS011;30146;52.268;20.944;2022-08-30T02:06:01;9.70;;;5.40;;
44440;SDS011;30146;52.268;20.944;2022-08-30T02:08:33;7.30;;;4.90;;
44440;SDS011;30146;52.268;20.944;2022-08-30T02:11:03;11.00;;;5.70;;
44440;SDS011;30146;52.268;20.944;2022-08-30T02:13:33;6.90;;;4.70;;
44440;SDS011;30146;52.268;20.944;2022-08-30T02:16:03;10.40;;;5.60;;
44440;SDS011;30146;52.268;20.944;2022-08-30T02:18:33;7.70;;;5.10;;
44440;SDS011;30146;52.268;20.944;2022-08-30T02:21:02;9.50;;;5.10;;
44440;SDS011;30146;52.268;20.944;2022-08-30T02:26:19;11.80;;;5.80;;
44440;SDS011;30146;52.268;20.944;2022-08-30T02:28:51;8.60;;;6.00;;
44440;SDS011;30146;52.268;20.944;2022-08-30T02:33:55;8.30;;;5.50;;
44440;SDS011;30146;52.268;20.944;2022-08-30T02:36:26;10.10;;;5.70;;
44440;SDS011;30146;52.268;20.944;2022-08-30T02:38:57;8.40;;;6.00;;
44440;SDS011;30146;52.268;20.944;2022-08-30T02:41:28;9.00;;;6.10;;
44440;SDS011;30146;52.268;20.944;2022-08-30T02:43:59;10.50;;;6.20;;
44440;SDS011;30146;52.268;20.944;2022-08-30T02:46:51;13.50;;;6.40;;
44440;SDS011;30146;52.268;20.944;2022-08-30T02:49:22;10.60;;;6.60;;
44440;SDS011;30146;52.268;20.944;2022-08-30T02:52:01;14.00;;;6.70;;
44440;SDS011;30146;52.268;20.944;2022-08-30T02:54:33;10.30;;;6.60;;
44440;SDS011;30146;52.268;20.944;2022-08-30T02:57:04;10.60;;;6.40;;
44440;SDS011;30146;52.268;20.944;2022-08-30T02:59:47;11.80;;;7.20;;
44440;SDS011;30146;52.268;20.944;2022-08-30T03:02:18;10.50;;;6.50;;
44440;SDS011;30146;52.268;20.944;2022-08-30T03:04:49;10.30;;;6.50;;
44440;SDS011;30146;52.268;20.944;2022-08-30T03:07:23;10.20;;;7.10;;
44440;SDS011;30146;52.268;20.944;2022-08-30T03:09:55;8.50;;;6.50;;
44440;SDS011;30146;52.268;20.944;2022-08-30T03:12:26;10.80;;;6.40;;
44440;SDS011;30146;52.268;20.944;2022-08-30T03:15:01;12.00;;;6.80;;
44440;SDS011;30146;52.268;20.944;2022-08-30T03:17:33;10.50;;;7.10;;
44440;SDS011;30146;52.268;20.944;2022-08-30T03:20:05;10.20;;;6.90;;
44440;SDS011;30146;52.268;20.944;2022-08-30T03:22:37;9.10;;;6.60;;
44440;SDS011;30146;52.268;20.944;2022-08-30T03:25:08;12.40;;;7.10;;
44440;SDS011;30146;52.268;20.944;2022-08-30T03:27:40;10.00;;;6.80;;
44440;SDS011;30146;52.268;20.944;2022-08-30T03:30:12;9.20;;;5.90;;
44440;SDS011;30146;52.268;20.944;2022-08-30T03:32:43;10.70;;;6.70;;
44440;SDS011;30146;52.268;20.944;2022-08-30T03:35:15;9.90;;;6.70;;
44440;SDS011;30146;52.268;20.944;2022-08-30T03:37:46;10.40;;;7.00;;
44440;SDS011;30146;52.268;20.944;2022-08-30T03:40:23;11.00;;;6.60;;
44440;SDS011;30146;52.268;20.944;2022-08-30T03:42:55;11.20;;;7.20;;
44440;SDS011;30146;52.268;20.944;2022-08-30T03:45:26;13.70;;;7.00;;
44440;SDS011;30146;52.268;20.944;2022-08-30T03:47:57;8.30;;;6.80;;
44440;SDS011;30146;52.268;20.944;2022-08-30T03:50:30;9.70;;;6.90;;
44440;SDS011;30146;52.268;20.944;2022-08-30T03:53:02;11.00;;;7.10;;
44440;SDS011;30146;52.268;20.944;2022-08-30T03:55:33;10.60;;;8.40;;
44440;SDS011;30146;52.268;20.944;2022-08-30T03:58:04;8.10;;;6.30;;
44440;SDS011;30146;52.268;20.944;2022-08-30T04:00:35;13.90;;;6.50;;
44440;SDS011;30146;52.268;20.944;2022-08-30T04:03:06;10.80;;;7.50;;
44440;SDS011;30146;52.268;20.944;2022-08-30T04:05:38;9.10;;;7.20;;
44440;SDS011;30146;52.268;20.944;2022-08-30T04:08:09;17.20;;;6.10;;
44440;SDS011;30146;52.268;20.944;2022-08-30T04:10:40;9.40;;;6.70;;
44440;SDS011;30146;52.268;20.944;2022-08-30T04:13:11;8.90;;;6.80;;
44440;SDS011;30146;52.268;20.944;2022-08-30T04:15:42;11.20;;;6.60;;
44440;SDS011;30146;52.268;20.944;2022-08-30T04:18:14;10.80;;;7.80;;
44440;SDS011;30146;52.268;20.944;2022-08-30T04:20:48;7.90;;;6.70;;
44440;SDS011;30146;52.268;20.944;2022-08-30T04:23:21;8.90;;;6.80;;
44440;SDS011;30146;52.268;20.944;2022-08-30T04:25:52;10.30;;;6.10;;
44440;SDS011;30146;52.268;20.944;2022-08-30T04:28:27;8.10;;;6.10;;
44440;SDS011;30146;52.268;20.944;2022-08-30T04:30:58;9.40;;;6.70;;
44440;SDS011;30146;52.268;20.944;2022-08-30T04:33:30;15.70;;;6.60;;
44440;SDS011;30146;52.268;20.944;2022-08-30T04:38:36;13.80;;;5.70;;
44440;SDS011;30146;52.268;20.944;2022-08-30T04:41:09;8.10;;;7.10;;
44440;SDS011;30146;52.268;20.944;2022-08-30T04:43:43;9.30;;;6.60;;
44440;SDS011;30146;52.268;20.944;2022-08-30T04:46:17;8.60;;;6.50;;
44440;SDS011;30146;52.268;20.944;2022-08-30T04:48:49;9.90;;;5.70;;
44440;SDS011;30146;52.268;20.944;2022-08-30T04:51:20;9.00;;;5.50;;
44440;SDS011;30146;52.268;20.944;2022-08-30T04:53:51;8.30;;;5.70;;
44440;SDS011;30146;52.268;20.944;2022-08-30T04:56:22;8.40;;;5.60;;
44440;SDS011;30146;52.268;20.944;2022-08-30T04:58:53;14.30;;;5.70;;
44440;SDS011;30146;52.268;20.944;2022-08-30T05:01:26;10.90;;;5.10;;
44440;SDS011;30146;52.268;20.944;2022-08-30T05:04:04;6.80;;;5.40;;
44440;SDS011;30146;52.268;20.944;2022-08-30T05:06:35;10.00;;;5.20;;
44440;SDS011;30146;52.268;20.944;2022-08-30T05:09:06;10.60;;;5.50;;
44440;SDS011;30146;52.268;20.944;2022-08-30T05:11:37;11.90;;;6.50;;
44440;SDS011;30146;52.268;20.944;2022-08-30T05:14:10;8.40;;;5.80;;
44440;SDS011;30146;52.268;20.944;2022-08-30T05:16:41;10.80;;;5.00;;
44440;SDS011;30146;52.268;20.944;2022-08-30T05:19:13;7.20;;;4.90;;
44440;SDS011;30146;52.268;20.944;2022-08-30T05:21:44;16.90;;;5.20;;
44440;SDS011;30146;52.268;20.944;2022-08-30T05:24:15;6.20;;;4.70;;
44440;SDS011;30146;52.268;20.944;2022-08-30T05:26:46;7.20;;;4.50;;
44440;SDS011;30146;52.268;20.944;2022-08-30T05:29:17;9.90;;;5.40;;
44440;SDS011;30146;52.268;20.944;2022-08-30T05:31:49;12.50;;;4.80;;
44440;SDS011;30146;52.268;20.944;2022-08-30T05:34:20;8.80;;;4.30;;
44440;SDS011;30146;52.268;20.944;2022-08-30T05:36:51;10.20;;;4.80;;
44440;SDS011;30146;52.268;20.944;2022-08-30T05:39:22;8.60;;;4.20;;
44440;SDS011;30146;52.268;20.944;2022-08-30T05:42:12;12.50;;;5.00;;
44440;SDS011;30146;52.268;20.944;2022-08-30T05:44:43;17.40;;;4.60;;
44440;SDS011;30146;52.268;20.944;2022-08-30T05:47:19;16.60;;;4.40;;
44440;SDS011;30146;52.268;20.944;2022-08-30T05:49:50;15.40;;;5.10;;
44440;SDS011;30146;52.268;20.944;2022-08-30T05:52:21;10.90;;;4.50;;
44440;SDS011;30146;52.268;20.944;2022-08-30T05:54:54;11.40;;;4.10;;
44440;SDS011;30146;52.268;20.944;2022-08-30T05:57:36;16.40;;;3.90;;
44440;SDS011;30146;52.268;20.944;2022-08-30T06:00:10;7.60;;;3.70;;
44440;SDS011;30146;52.268;20.944;2022-08-30T06:02:44;8.00;;;3.70;;
44440;SDS011;30146;52.268;20.944;2022-08-30T06:05:15;5.30;;;3.30;;
44440;SDS011;30146;52.268;20.944;2022-08-30T06:07:47;5.80;;;3.20;;
44440;SDS011;30146;52.268;20.944;2022-08-30T06:10:19;8.50;;;3.60;;
44440;SDS011;30146;52.268;20.944;2022-08-30T06:12:50;10.80;;;3.40;;
44440;SDS011;30146;52.268;20.944;2022-08-30T06:15:24;12.80;;;3.20;;
44440;SDS011;30146;52.268;20.944;2022-08-30T06:17:55;9.10;;;3.10;;
44440;SDS011;30146;52.268;20.944;2022-08-30T06:20:29;12.00;;;3.10;;
44440;SDS011;30146;52.268;20.944;2022-08-30T06:23:03;12.10;;;3.70;;
44440;SDS011;30146;52.268;20.944;2022-08-30T06:25:37;7.50;;;2.70;;
44440;SDS011;30146;52.268;20.944;2022-08-30T06:28:14;9.30;;;3.00;;
44440;SDS011;30146;52.268;20.944;2022-08-30T06:30:46;7.90;;;2.80;;
44440;SDS011;30146;52.268;20.944;2022-08-30T06:33:17;6.50;;;2.90;;
44440;SDS011;30146;52.268;20.944;2022-08-30T06:35:48;6.80;;;2.50;;
44440;SDS011;30146;52.268;20.944;2022-08-30T06:38:49;8.40;;;3.10;;
44440;SDS011;30146;52.268;20.944;2022-08-30T06:41:26;5.40;;;2.90;;
44440;SDS011;30146;52.268;20.944;2022-08-30T06:46:38;8.60;;;2.80;;
44440;SDS011;30146;52.268;20.944;2022-08-30T06:49:09;55.10;;;3.80;;
44440;SDS011;30146;52.268;20.944;2022-08-30T06:51:54;10.60;;;2.80;;
44440;SDS011;30146;52.268;20.944;2022-08-30T06:54:26;6.70;;;2.20;;
44440;SDS011;30146;52.268;20.944;2022-08-30T06:56:58;6.20;;;2.80;;
44440;SDS011;30146;52.268;20.944;2022-08-30T06:59:38;14.90;;;2.70;;
44440;SDS011;30146;52.268;20.944;2022-08-30T07:02:10;9.70;;;2.30;;
44440;SDS011;30146;52.268;20.944;2022-08-30T07:08:01;2.70;;;1.90;;
44440;SDS011;30146;52.268;20.944;2022-08-30T07:10:32;5.80;;;2.10;;
44440;SDS011;30146;52.268;20.944;2022-08-30T07:13:06;12.80;;;3.60;;
44440;SDS011;30146;52.268;20.944;2022-08-30T07:15:38;8.70;;;2.60;;
44440;SDS011;30146;52.268;20.944;2022-08-30T07:18:11;12.10;;;2.20;;
44440;SDS011;30146;52.268;20.944;2022-08-30T07:21:08;6.70;;;2.10;;
44440;SDS011;30146;52.268;20.944;2022-08-30T07:23:43;5.00;;;2.40;;
44440;SDS011;30146;52.268;20.944;2022-08-30T07:26:43;14.80;;;2.30;;
44440;SDS011;30146;52.268;20.944;2022-08-30T07:29:17;13.50;;;2.40;;
44440;SDS011;30146;52.268;20.944;2022-08-30T07:31:49;5.80;;;2.50;;
44440;SDS011;30146;52.268;20.944;2022-08-30T07:34:32;6.60;;;2.10;;
44440;SDS011;30146;52.268;20.944;2022-08-30T07:37:03;23.90;;;3.00;;
44440;SDS011;30146;52.268;20.944;2022-08-30T07:39:35;4.10;;;1.80;;
44440;SDS011;30146;52.268;20.944;2022-08-30T07:42:15;4.00;;;1.80;;
44440;SDS011;30146;52.268;20.944;2022-08-30T07:44:47;4.20;;;1.90;;
44440;SDS011;30146;52.268;20.944;2022-08-30T07:47:37;5.90;;;1.90;;
44440;SDS011;30146;52.268;20.944;2022-08-30T07:50:09;4.70;;;1.90;;
44440;SDS011;30146;52.268;20.944;2022-08-30T07:52:42;5.30;;;2.60;;
44440;SDS011;30146;52.268;20.944;2022-08-30T07:55:13;8.00;;;2.40;;
44440;SDS011;30146;52.268;20.944;2022-08-30T07:57:45;5.90;;;2.10;;
44440;SDS011;30146;52.268;20.944;2022-08-30T08:00:17;7.70;;;2.20;;
44440;SDS011;30146;52.268;20.944;2022-08-30T08:02:49;6.70;;;2.30;;
44440;SDS011;30146;52.268;20.944;2022-08-30T08:05:21;8.30;;;2.40;;
44440;SDS011;30146;52.268;20.944;2022-08-30T08:07:55;3.40;;;2.20;;
44440;SDS011;30146;52.268;20.944;2022-08-30T08:10:27;6.60;;;2.70;;
44440;SDS011;30146;52.268;20.944;2022-08-30T08:13:02;5.00;;;2.10;;
44440;SDS011;30146;52.268;20.944;2022-08-30T08:15:34;13.50;;;2.10;;
44440;SDS011;30146;52.268;20.944;2022-08-30T08:18:06;4.00;;;2.00;;
44440;SDS011;30146;52.268;20.944;2022-08-30T08:20:58;5.10;;;2.00;;
44440;SDS011;30146;52.268;20.944;2022-08-30T08:23:31;6.70;;;2.10;;
44440;SDS011;30146;52.268;20.944;2022-08-30T08:26:03;3.50;;;1.70;;
44440;SDS011;30146;52.268;20.944;2022-08-30T08:28:38;5.70;;;1.80;;
44440;SDS011;30146;52.268;20.944;2022-08-30T08:31:25;3.40;;;1.80;;
44440;SDS011;30146;52.268;20.944;2022-08-30T08:34:01;5.60;;;1.70;;
44440;SDS011;30146;52.268;20.944;2022-08-30T08:36:36;2.80;;;1.60;;
44440;SDS011;30146;52.268;20.944;2022-08-30T08:39:08;5.90;;;1.70;;
44440;SDS011;30146;52.268;20.944;2022-08-30T08:41:47;4.00;;;1.90;;
44440;SDS011;30146;52.268;20.944;2022-08-30T08:44:34;7.80;;;1.90;;
44440;SDS011;30146;52.268;20.944;2022-08-30T08:47:52;4.00;;;1.90;;
44440;SDS011;30146;52.268;20.944;2022-08-30T08:50:31;5.20;;;1.60;;
44440;SDS011;30146;52.268;20.944;2022-08-30T08:53:06;5.80;;;1.70;;
44440;SDS011;30146;52.268;20.944;2022-08-30T08:56:15;2.70;;;1.60;;
44440;SDS011;30146;52.268;20.944;2022-08-30T08:58:50;4.70;;;1.70;;
44440;SDS011;30146;52.268;20.944;2022-08-30T09:01:25;3.20;;;1.80;;
44440;SDS011;30146;52.268;20.944;2022-08-30T09:06:37;5.40;;;1.50;;
44440;SDS011;30146;52.268;20.944;2022-08-30T09:09:14;4.10;;;1.90;;
44440;SDS011;30146;52.268;20.944;2022-08-30T09:14:21;2.70;;;1.40;;
44440;SDS011;30146;52.268;20.944;2022-08-30T09:17:01;4.40;;;1.40;;
44440;SDS011;30146;52.268;20.944;2022-08-30T09:19:36;4.70;;;1.30;;
44440;SDS011;30146;52.268;20.944;2022-08-30T09:22:15;1.20;;;1.10;;
44440;SDS011;30146;52.268;20.944;2022-08-30T09:24:59;3.60;;;1.50;;
44440;SDS011;30146;52.268;20.944;2022-08-30T09:27:37;3.70;;;2.10;;
44440;SDS011;30146;52.268;20.944;2022-08-30T09:31:01;5.00;;;1.90;;
44440;SDS011;30146;52.268;20.944;2022-08-30T09:33:39;7.70;;;1.40;;
44440;SDS011;30146;52.268;20.944;2022-08-30T09:37:22;3.40;;;1.40;;
44440;SDS011;30146;52.268;20.944;2022-08-30T09:39:57;5.00;;;1.60;;
44440;SDS011;30146;52.268;20.944;2022-08-30T09:42:29;10.40;;;1.80;;
44440;SDS011;30146;52.268;20.944;2022-08-30T09:45:00;3.40;;;1.40;;
44440;SDS011;30146;52.268;20.944;2022-08-30T09:47:42;5.40;;;1.90;;
44440;SDS011;30146;52.268;20.944;2022-08-30T09:50:14;4.30;;;1.30;;
44440;SDS011;30146;52.268;20.944;2022-08-30T09:52:54;15.00;;;2.80;;
44440;SDS011;30146;52.268;20.944;2022-08-30T10:01:49;15.50;;;2.20;;
44440;SDS011;30146;52.268;20.944;2022-08-30T10:04:31;4.10;;;2.80;;
44440;SDS011;30146;52.268;20.944;2022-08-30T10:10:23;7.00;;;1.60;;
44440;SDS011;30146;52.268;20.944;2022-08-30T10:13:52;3.40;;;1.10;;
44440;SDS011;30146;52.268;20.944;2022-08-30T10:16:36;2.10;;;1.20;;
44440;SDS011;30146;52.268;20.944;2022-08-30T10:19:22;1.80;;;1.10;;
44440;SDS011;30146;52.268;20.944;2022-08-30T10:22:03;4.70;;;1.20;;
44440;SDS011;30146;52.268;20.944;2022-08-30T10:24:46;1.80;;;1.10;;
44440;SDS011;30146;52.268;20.944;2022-08-30T10:27:24;4.50;;;1.20;;
44440;SDS011;30146;52.268;20.944;2022-08-30T10:29:59;3.00;;;1.30;;
44440;SDS011;30146;52.268;20.944;2022-08-30T10:32:45;1.80;;;1.30;;
44440;SDS011;30146;52.268;20.944;2022-08-30T10:35:20;6.20;;;1.40;;
44440;SDS011;30146;52.268;20.944;2022-08-30T10:38:07;2.60;;;1.10;;
44440;SDS011;30146;52.268;20.944;2022-08-30T10:40:47;8.30;;;1.50;;
44440;SDS011;30146;52.268;20.944;2022-08-30T10:43:53;3.40;;;1.20;;
44440;SDS011;30146;52.268;20.944;2022-08-30T10:46:31;3.00;;;1.30;;
44440;SDS011;30146;52.268;20.944;2022-08-30T10:49:10;2.80;;;1.40;;
44440;SDS011;30146;52.268;20.944;2022-08-30T10:51:49;2.80;;;1.20;;
44440;SDS011;30146;52.268;20.944;2022-08-30T10:54:41;5.20;;;1.20;;
44440;SDS011;30146;52.268;20.944;2022-08-30T10:57:29;2.70;;;1.30;;
44440;SDS011;30146;52.268;20.944;2022-08-30T11:00:39;17.60;;;1.90;;
44440;SDS011;30146;52.268;20.944;2022-08-30T11:03:37;11.70;;;2.00;;
44440;SDS011;30146;52.268;20.944;2022-08-30T11:06:32;39.60;;;2.60;;
44440;SDS011;30146;52.268;20.944;2022-08-30T11:09:16;11.40;;;2.60;;
44440;SDS011;30146;52.268;20.944;2022-08-30T11:11:58;11.60;;;1.40;;
44440;SDS011;30146;52.268;20.944;2022-08-30T11:14:56;17.20;;;1.70;;
44440;SDS011;30146;52.268;20.944;2022-08-30T11:17:44;6.10;;;2.70;;
44440;SDS011;30146;52.268;20.944;2022-08-30T11:20:29;12.50;;;1.80;;
44440;SDS011;30146;52.268;20.944;2022-08-30T11:23:21;29.20;;;3.40;;
44440;SDS011;30146;52.268;20.944;2022-08-30T11:26:01;26.10;;;2.50;;
44440;SDS011;30146;52.268;20.944;2022-08-30T11:31:37;4.80;;;1.50;;
44440;SDS011;30146;52.268;20.944;2022-08-30T11:34:14;20.20;;;2.30;;
44440;SDS011;30146;52.268;20.944;2022-08-30T11:37:45;8.60;;;1.60;;
44440;SDS011;30146;52.268;20.944;2022-08-30T11:46:36;46.70;;;5.20;;
44440;SDS011;30146;52.268;20.944;2022-08-30T11:52:26;11.90;;;2.40;;
44440;SDS011;30146;52.268;20.944;2022-08-30T11:58:18;16.60;;;8.10;;
44440;SDS011;30146;52.268;20.944;2022-08-30T12:01:30;6.40;;;3.50;;
44440;SDS011;30146;52.268;20.944;2022-08-30T12:04:44;21.70;;;3.70;;
44440;SDS011;30146;52.268;20.944;2022-08-30T12:07:53;8.90;;;2.30;;
44440;SDS011;30146;52.268;20.944;2022-08-30T12:10:35;13.00;;;2.00;;
44440;SDS011;30146;52.268;20.944;2022-08-30T12:13:09;9.70;;;2.10;;
44440;SDS011;30146;52.268;20.944;2022-08-30T12:16:23;4.20;;;1.40;;
44440;SDS011;30146;52.268;20.944;2022-08-30T12:19:28;3.30;;;1.30;;
44440;SDS011;30146;52.268;20.944;2022-08-30T12:22:02;3.00;;;1.20;;
44440;SDS011;30146;52.268;20.944;2022-08-30T12:24:36;7.00;;;1.20;;
44440;SDS011;30146;52.268;20.944;2022-08-30T12:27:21;2.40;;;1.20;;
44440;SDS011;30146;52.268;20.944;2022-08-30T12:30:26;3.60;;;1.40;;
44440;SDS011;30146;52.268;20.944;2022-08-30T12:32:57;1.20;;;0.90;;
44440;SDS011;30146;52.268;20.944;2022-08-30T12:35:44;1.80;;;1.00;;
44440;SDS011;30146;52.268;20.944;2022-08-30T12:38:27;16.40;;;1.50;;
44440;SDS011;30146;52.268;20.944;2022-08-30T12:41:00;2.40;;;1.10;;
44440;SDS011;30146;52.268;20.944;2022-08-30T12:43:34;1.20;;;1.00;;
44440;SDS011;30146;52.268;20.944;2022-08-30T12:46:12;3.60;;;1.10;;
44440;SDS011;30146;52.268;20.944;2022-08-30T12:48:47;2.90;;;0.80;;
44440;SDS011;30146;52.268;20.944;2022-08-30T12:51:33;2.00;;;0.80;;
44440;SDS011;30146;52.268;20.944;2022-08-30T12:57:38;1.10;;;0.90;;
44440;SDS011;30146;52.268;20.944;2022-08-30T13:01:09;2.30;;;1.60;;
44440;SDS011;30146;52.268;20.944;2022-08-30T13:06:47;2.80;;;1.20;;
44440;SDS011;30146;52.268;20.944;2022-08-30T13:09:23;9.60;;;1.10;;
44440;SDS011;30146;52.268;20.944;2022-08-30T13:12:00;3.30;;;1.80;;
44440;SDS011;30146;52.268;20.944;2022-08-30T13:14:38;12.30;;;1.30;;
44440;SDS011;30146;52.268;20.944;2022-08-30T13:17:20;5.20;;;1.20;;
44440;SDS011;30146;52.268;20.944;2022-08-30T13:20:30;8.40;;;1.50;;
44440;SDS011;30146;52.268;20.944;2022-08-30T13:23:20;1.90;;;1.20;;
44440;SDS011;30146;52.268;20.944;2022-08-30T13:25:52;9.00;;;1.20;;
44440;SDS011;30146;52.268;20.944;2022-08-30T13:28:24;2.10;;;1.20;;
44440;SDS011;30146;52.268;20.944;2022-08-30T13:30:57;6.00;;;1.40;;
44440;SDS011;30146;52.268;20.944;2022-08-30T13:36:00;2.20;;;1.40;;
44440;SDS011;30146;52.268;20.944;2022-08-30T13:38:35;4.10;;;1.50;;
44440;SDS011;30146;52.268;20.944;2022-08-30T13:41:06;3.90;;;1.30;;
44440;SDS011;30146;52.268;20.944;2022-08-30T13:43:38;8.10;;;1.80;;
44440;SDS011;30146;52.268;20.944;2022-08-30T13:46:29;7.90;;;1.40;;
44440;SDS011;30146;52.268;20.944;2022-08-30T13:49:01;3.00;;;1.60;;
44440;SDS011;30146;52.268;20.944;2022-08-30T13:52:04;1.60;;;1.10;;
44440;SDS011;30146;52.268;20.944;2022-08-30T13:54:48;1.90;;;1.20;;
44440;SDS011;30146;52.268;20.944;2022-08-30T13:57:41;3.50;;;1.30;;
44440;SDS011;30146;52.268;20.944;2022-08-30T14:00:21;6.10;;;1.90;;
44440;SDS011;30146;52.268;20.944;2022-08-30T14:02:55;2.50;;;1.40;;
44440;SDS011;30146;52.268;20.944;2022-08-30T14:05:28;1.50;;;1.20;;
44440;SDS011;30146;52.268;20.944;2022-08-30T14:08:22;2.70;;;1.60;;
44440;SDS011;30146;52.268;20.944;2022-08-30T14:11:15;1.70;;;1.10;;
44440;SDS011;30146;52.268;20.944;2022-08-30T14:13:50;7.20;;;1.30;;
44440;SDS011;30146;52.268;20.944;2022-08-30T14:16:42;2.90;;;1.30;;
44440;SDS011;30146;52.268;20.944;2022-08-30T14:19:15;4.50;;;1.40;;
44440;SDS011;30146;52.268;20.944;2022-08-30T14:21:48;3.10;;;2.20;;
44440;SDS011;30146;52.268;20.944;2022-08-30T14:24:19;3.00;;;1.60;;
44440;SDS011;30146;52.268;20.944;2022-08-30T14:26:51;5.80;;;1.50;;
44440;SDS011;30146;52.268;20.944;2022-08-30T14:29:23;2.50;;;1.20;;
44440;SDS011;30146;52.268;20.944;2022-08-30T14:34:28;1.60;;;1.20;;
44440;SDS011;30146;52.268;20.944;2022-08-30T14:37:00;4.30;;;1.20;;
44440;SDS011;30146;52.268;20.944;2022-08-30T14:39:34;1.80;;;1.10;;
44440;SDS011;30146;52.268;20.944;2022-08-30T14:42:28;2.50;;;1.30;;
44440;SDS011;30146;52.268;20.944;2022-08-30T14:45:00;3.60;;;1.10;;
44440;SDS011;30146;52.268;20.944;2022-08-30T14:47:31;9.20;;;1.50;;
44440;SDS011;30146;52.268;20.944;2022-08-30T14:50:03;4.70;;;1.30;;
44440;SDS011;30146;52.268;20.944;2022-08-30T14:52:39;2.60;;;1.20;;
44440;SDS011;30146;52.268;20.944;2022-08-30T14:55:16;2.50;;;1.20;;
44440;SDS011;30146;52.268;20.944;2022-08-30T14:57:47;3.30;;;1.20;;
44440;SDS011;30146;52.268;20.944;2022-08-30T15:00:19;3.00;;;1.80;;
44440;SDS011;30146;52.268;20.944;2022-08-30T15:03:02;5.60;;;3.00;;
44440;SDS011;30146;52.268;20.944;2022-08-30T15:05:33;4.10;;;1.80;;
44440;SDS011;30146;52.268;20.944;2022-08-30T15:08:05;4.70;;;1.30;;
44440;SDS011;30146;52.268;20.944;2022-08-30T15:10:36;2.30;;;1.30;;
44440;SDS011;30146;52.268;20.944;2022-08-30T15:13:13;2.30;;;1.10;;
44440;SDS011;30146;52.268;20.944;2022-08-30T15:15:45;1.90;;;1.10;;
44440;SDS011;30146;52.268;20.944;2022-08-30T15:18:18;2.00;;;1.10;;
44440;SDS011;30146;52.268;20.944;2022-08-30T15:20:55;2.00;;;1.00;;
44440;SDS011;30146;52.268;20.944;2022-08-30T15:23:27;1.60;;;1.00;;
44440;SDS011;30146;52.268;20.944;2022-08-30T15:25:58;3.90;;;1.20;;
44440;SDS011;30146;52.268;20.944;2022-08-30T15:28:31;1.60;;;1.10;;
44440;SDS011;30146;52.268;20.944;2022-08-30T15:31:05;2.50;;;1.30;;
44440;SDS011;30146;52.268;20.944;2022-08-30T15:33:37;5.50;;;1.10;;
44440;SDS011;30146;52.268;20.944;2022-08-30T15:36:13;3.60;;;1.10;;
44440;SDS011;30146;52.268;20.944;2022-08-30T15:38:45;3.70;;;1.40;;
44440;SDS011;30146;52.268;20.944;2022-08-30T15:41:17;3.20;;;1.20;;
44440;SDS011;30146;52.268;20.944;2022-08-30T15:43:48;3.60;;;1.10;;
44440;SDS011;30146;52.268;20.944;2022-08-30T15:48:58;1.90;;;1.00;;
44440;SDS011;30146;52.268;20.944;2022-08-30T15:51:31;1.70;;;0.90;;
44440;SDS011;30146;52.268;20.944;2022-08-30T15:54:16;4.40;;;1.50;;
44440;SDS011;30146;52.268;20.944;2022-08-30T15:56:55;4.50;;;1.30;;
44440;SDS011;30146;52.268;20.944;2022-08-30T15:59:32;5.00;;;1.40;;
44440;SDS011;30146;52.268;20.944;2022-08-30T16:02:05;7.10;;;1.20;;
44440;SDS011;30146;52.268;20.944;2022-08-30T16:04:36;1.40;;;1.00;;
44440;SDS011;30146;52.268;20.944;2022-08-30T16:07:08;3.50;;;1.30;;
44440;SDS011;30146;52.268;20.944;2022-08-30T16:09:40;3.40;;;1.30;;
44440;SDS011;30146;52.268;20.944;2022-08-30T16:12:11;2.60;;;1.10;;
44440;SDS011;30146;52.268;20.944;2022-08-30T16:14:51;2.60;;;1.20;;
44440;SDS011;30146;52.268;20.944;2022-08-30T16:17:25;2.60;;;1.20;;
44440;SDS011;30146;52.268;20.944;2022-08-30T16:19:57;1.90;;;1.30;;
44440;SDS011;30146;52.268;20.944;2022-08-30T16:22:29;3.90;;;1.30;;
44440;SDS011;30146;52.268;20.944;2022-08-30T16:25:00;7.40;;;1.50;;
44440;SDS011;30146;52.268;20.944;2022-08-30T16:27:36;6.00;;;1.50;;